Grand Valley Turkey Trot 5K

back to results

Nov. 19, 2011

Grand Valley Turkey Trot 5K
Grand Valley State University, MI
Provided by Michiana Timing


GVSU Running Club Turkey Trot 5K - 2011
All Finishers Report as of 11/19/2011 10:25:11 AM

Place Bib # Name Time Age Ranking Age Gender City
_________________________________________________________________________________________________
1 45 Max Dekorne 00:16:22 1st Overall Male 21 M Jenison
2 112 Andrew Kuck 00:16:51 1st M-15 to 19 19 M Allendale
3 130 Evan Moreau 00:17:13 1st M-20 to 29 20 M Onaway
4 190 Gavin Stuart 00:17:14 2nd M-20 to 29 21 M Hudsonville
5 249 Kyle Schippa 00:17:15 2nd M-15 to 19 19 M Allendale
6 259 Samantha Draney 00:17:19 1st Overall Female23 F Kalamazoo
7 194 Keith Thomas 00:17:24 3rd M-20 to 29 27 M Big Rapids
8 225 Robert Schlinz 00:17:30 1st M-50 to 59 51 M Allendale
9 233 Sam Freestone 00:17:52 3rd M-15 to 19 16 M Fennville
10 126 Nick Mcintosh 00:18:28 4th M-15 to 19 18 M Allendale
11 104 Jonathan Kelly 00:18:29 5th M-15 to 19 19 M Charlevoix
12 226 Alicia Sherwood 00:18:30 1st F-20 to 29 24 F Holland
13 79 Matthew Hager 00:18:36 6th M-15 to 19 17 M Grand Rapids
14 231 Scott Freese 00:18:36 1st M-30 to 39 35 M Allendale
15 270 Joseph Britt 00:18:54 7th M-15 to 19 15 M Holland
16 242 Connor Bolthouse 00:19:23 8th M-15 to 19 15 M Spring Lake
17 247 Jess Paauwl 00:19:24 4th M-20 to 29 22 M Allendale
18 272 AJ Garcia 00:19:25 9th M-15 to 19 15 M Holland
19 73 Alison Goss 00:19:36 2nd F-20 to 29 24 F Traverse City
20 222 Paul Soper 00:19:37 1st M-40 to 49 48 M Grand Rapids
21 271 Jerry L. Schipper 00:19:45 2nd M-40 to 49 47 M Lake City
22 139 Erik Nordman 00:19:52 2nd M-30 to 39 38 M Spring Lake
23 89 Tim Henne 00:19:59 3rd M-30 to 39 39 M Walker
24 65 Daniel Evans 00:20:10 5th M-20 to 29 24 M Muskegon
25 77 Richard Grenn 00:20:12 6th M-20 to 29 20 M Birmingham
26 98 Bailey Johnson 00:20:19 1st F-1 to 14 14 F Grandville
27 172 Daniel Shomsky 00:20:19 10th M-15 to 19 18 M Grand Rapids
28 168 Scott Sedgley 00:20:35 7th M-20 to 29 25 M Muskegon
29 84 Gretchen Hein 00:20:42 3rd F-20 to 29 22 F Allendale
30 94 Christine Horn 00:20:46 4th F-20 to 29 26 F Montague
31 82 Joanna Hathaway 00:20:48 1st F-30 to 39 39 F Coldwater
32 177 Maylani Siemasz 00:20:49 1st F-15 to 19 19 F Waterford
33 175 Martha Shomsky 00:21:04 2nd F-1 to 14 8 F Grand Rapids
34 183 Julie Stempien 00:21:06 1st F-40 to 49 47 F Coldwater
35 199 Mark Van Duinen 00:21:19 3rd M-40 to 49 43 M Zeeland
36 284 Tom Kasper 00:21:20 4th M-30 to 39 36 M Traverse City
37 173 Joshua Shomsky 00:21:24 8th M-20 to 29 21 M Grand Rapids
38 41 Rohan Dandavati 00:21:25 1st M-1 to 14 13 M Holland
39 278 Oliver 00:21:26 2nd M-1 to 14 12 M Zeeland
40 61 Patrick English 00:21:32 4th M-40 to 49 40 M Big Rapids
41 55 Chelsea Dukes 00:21:35 5th F-20 to 29 20 F Stanwood
42 171 Pete Shepherd 00:21:41 5th M-30 to 39 34 M Midland
43 174 Katherine Shomsky 00:21:43 6th F-20 to 29 24 F Grand Rapids
44 161 Carlee Roeber 00:21:45 7th F-20 to 29 20 F Shelby Twp.
45 2 Amy Alfano 00:21:47 8th F-20 to 29 29 F Saginaw
46 153 Loren Redder 00:21:50 1st M-60 to 99 65 M Zeeland
47 108 Elizabeth Koltonow 00:22:01 9th F-20 to 29 21 F Beverly Hills
48 279 Petra Coranedo 00:22:06 10th F-20 to 29 20 F Big Rapids
49 117 Ben Levander 00:22:11 3rd M-1 to 14 13 M Allendale
50 143 Alex Overbeek 00:22:17 11th M-15 to 19 17 M Wyoming
51 156 Erin Ricco 00:22:22 2nd F-30 to 39 32 F Nunica
52 18 Tarah Bourke 00:22:28 2nd F-15 to 19 18 F Newaygo
53 49 Liza Diantonio 00:22:47 3rd F-15 to 19 19 F Clarkston
54 31 Gary Chapman 00:22:48 2nd M-50 to 59 59 M Jenison
55 234 Anna Stegink 00:22:48 11th F-20 to 29 20 F Kalamazoo
56 251 Melissa Schrutenboen 00:22:50 12th F-20 to 29 25 F Holland
57 13 Jason Bates 00:22:56 9th M-20 to 29 23 M Muskegon
58 119 Liz Lipkovitz 00:22:57 13th F-20 to 29 20 F Lansing
59 99 Hannah Johnson 00:22:58 4th F-15 to 19 17 F Holland
60 250 Sara Helder 00:23:00 5th F-15 to 19 16 F Holland
61 248 Michael Rajmcek 00:23:05 10th M-20 to 29 21 M Allendale
62 114 Lindsey Kulie 00:23:07 6th F-15 to 19 17 F Novi
63 35 Madeline Coyle 00:23:08 7th F-15 to 19 18 F Allendale
64 269 James Butt 00:23:15 6th M-30 to 39 39 M Zeeland
65 243 Katherine Andert 00:23:16 14th F-20 to 29 20 F Allendale
66 40 Scott Dakin 00:23:18 7th M-30 to 39 37 M Muskegon
67 146 Matthew Picardat 00:23:22 11th M-20 to 29 20 M Wyoming
68 145 Staci Peterson 00:23:24 8th F-15 to 19 18 F Bloomingdale
69 246 Hannah Millard 00:23:32 3rd F-1 to 14 14 F Allendale
70 192 Matt Tanis 00:23:34 8th M-30 to 39 30 M Holland
71 80 Nicole Hammer 00:23:36 15th F-20 to 29 21 F Troy
72 256 Olivia Hobbins 00:23:37 4th F-1 to 14 14 F Allendale
73 266 Colt Seeley 00:23:38 4th M-1 to 14 14 M West Olive
74 265 Aaron Hoxworth 00:23:57 12th M-20 to 29 22 M Hastings
75 109 Brett Kosmicki 00:24:00 13th M-20 to 29 24 M Grand Rapids
76 85 Ian Heinicke 00:24:14 12th M-15 to 19 18 M Kalamazoo
77 113 Jason Kuck 00:24:14 13th M-15 to 19 18 M Allendale
78 257 Heath Hofstra 00:24:18 14th M-20 to 29 27 M Hudsonville
79 36 Michelle Croad 00:24:33 9th F-15 to 19 18 F Novi
80 198 David Van Duinen 00:24:36 5th M-40 to 49 41 M Spring Lake
81 187 Hannah Strauel 00:24:38 16th F-20 to 29 22 F Kent City
82 76 Jim Green 00:24:39 3rd M-50 to 59 58 M Hudsonville
83 3 Peter Alfano 00:24:41 9th M-30 to 39 35 M Saginaw
84 14 Avri Beach 00:24:41 5th F-1 to 14 13 F Rockford
85 176 Rebekah Shomsky 00:24:51 6th F-1 to 14 12 F Grand Rapids
86 227 Bob Gudas 00:24:51 2nd M-60 to 99 63 M Spring Lake
87 159 Daniel Robison 00:25:09 10th M-30 to 39 35 M Allendale
88 188 Joseph Strauel 00:25:09 14th M-15 to 19 19 M Marlette
89 6 Brad Anderson 00:25:11 6th M-40 to 49 40 M Jenison
90 25 Ken Campbell 00:25:12 7th M-40 to 49 42 M Grand Rapids
91 92 Taylor Hoganson 00:25:25 15th M-20 to 29 20 M Walker
92 135 Tim Nellis 00:25:25 16th M-20 to 29 20 M Wyoming
93 62 Greg Erny 00:25:28 8th M-40 to 49 42 M Holland
94 258 Edna Stutzman 00:25:29 17th F-20 to 29 23 F Bronson
95 97 Frank Hvizdos 00:25:32 17th M-20 to 29 27 M Jenison
96 59 Danielle Durnwald 00:25:34 18th F-20 to 29 24 F Holland
97 203 Kelsey Waldecker 00:25:35 19th F-20 to 29 20 F Marne
98 268 Dean Bettendorf 00:25:36 11th M-30 to 39 37 M Muskegon
99 184 Sean Sterling 00:25:43 18th M-20 to 29 24 M Walker
100 220 Elise Zuber 00:25:43 3rd F-30 to 39 37 F Zeeland
101 20 Calvin Brinks 00:25:56 4th M-50 to 59 52 M Jenison
102 67 Joseph Fordney 00:26:03 5th M-1 to 14 9 M Allendale
103 240 Steven Lee Abramson 00:26:04 19th M-20 to 29 29 M Grand Rapids
104 138 Jim Nobert 00:26:16 12th M-30 to 39 30 M Grand Rapids
105 263 Dawn Bredeweg 00:26:17 4th F-30 to 39 38 F Zeeland
106 69 Stephanie Foreman 00:26:19 20th F-20 to 29 27 F Holland
107 229 Jan TenKate 00:26:26 1st F-50 to 59 50 F Wyoming
108 237 Gail Riddering 00:26:26 2nd F-40 to 49 43 F Grandville
109 189 Bethany Stripp 00:26:27 21st F-20 to 29 21 F Holland
110 26 Ashley Caniff 00:26:28 10th F-15 to 19 19 F Allendale
111 151 Mary Pope 00:26:29 2nd F-50 to 59 53 F Pinckney
112 30 Katrina Caruso 00:26:34 22nd F-20 to 29 21 F Grand Rapids
113 71 Avery Gill 00:26:35 7th F-1 to 14 10 F Grand Rapids
114 28 Kierstin Carpenter 00:26:38 8th F-1 to 14 14 F Dorr
115 185 Elly Stjohn 00:26:42 9th F-1 to 14 14 F Marne
116 201 Emily Vanderwagen 00:26:42 11th F-15 to 19 15 F Coopersville
117 162 Aubrey Rogers 00:26:43 23rd F-20 to 29 20 F Zeeland
118 43 Terry Davis 00:27:02 20th M-20 to 29 22 M Allendale
119 46 Brandon Deroo 00:27:08 21st M-20 to 29 20 M Zeeland
120 260 Beth Kruithoff 00:27:09 24th F-20 to 29 23 F Zeeland
121 122 Leah Macfadden 00:27:16 25th F-20 to 29 26 F Grand Haven
122 197 Jenn Treat 00:27:16 26th F-20 to 29 29 F Muskegon
123 169 Grace Seymore 00:27:35 12th F-15 to 19 18 F Big Rapids
124 217 Kellie Zachman 00:27:39 27th F-20 to 29 20 F Allendale
125 179 John Slattery 00:27:41 5th M-50 to 59 51 M Mundelein
126 191 Robert Talbert 00:27:42 9th M-40 to 49 41 M Hudsonville
127 16 Melissa Beemer 00:27:55 13th F-15 to 19 19 F Allendale
128 232 Leah Sajdak 00:28:00 14th F-15 to 19 18 F Allendale
129 253 Karen Friberg 00:28:03 3rd F-40 to 49 47 F Caledonia
130 252 Kelsey Friberg 00:28:05 15th F-15 to 19 17 F Caledonia
131 125 Leanne Mcfall 00:28:08 4th F-40 to 49 40 F Zeeland
132 90 Dustin Hernke 00:28:09 22nd M-20 to 29 24 M Grand Rapids
133 262 Amy Carrabine 00:28:11 28th F-20 to 29 20 F Allendale
134 52 Aislinn Droski 00:28:15 10th F-1 to 14 13 F Allendale
135 23 Elizabeth Burnis 00:28:17 5th F-40 to 49 41 F Holland
136 70 Shawna Galehouse 00:28:22 16th F-15 to 19 16 F Grand Rapids
137 255 Mariah Janho 00:28:27 17th F-15 to 19 17 F Kentwood
138 282 Stephanie Hagger 00:28:38 29th F-20 to 29 20 F South Haven
139 230 John Fordney 00:28:40 10th M-40 to 49 42 M Allendale
140 50 Renee Dix 00:28:42 6th F-40 to 49 40 F Jenison
141 129 Sarah Minnick 00:28:44 5th F-30 to 39 37 F Grand Rapids
142 63 Angelika Espinosa 00:28:53 18th F-15 to 19 18 F Holland
143 274 Blake Gaver 00:28:58 15th M-15 to 19 18 M Jackson
144 275 Danielle Colliau 00:28:58 19th F-15 to 19 18 F Allendale
145 241 Megan Brocklehurst 00:29:02 20th F-15 to 19 19 F Allendale
146 160 Melinda Robison 00:29:03 6th F-30 to 39 35 F Allendale
147 123 Sarah Manis 00:29:10 21st F-15 to 19 18 F Scotts
148 127 Michelle Medved 00:29:11 22nd F-15 to 19 18 F Novi
149 186 Jennifer Stoll 00:29:18 30th F-20 to 29 27 F Grand Rapids
150 9 Chelsea Baker 00:29:19 23rd F-15 to 19 19 F Allendale
151 64 April Espinosa 00:29:21 7th F-30 to 39 37 F Holland
152 281 Morgan Harding 00:29:27 24th F-15 to 19 19 F Boyne City
153 208 Emily West 00:29:30 31st F-20 to 29 24 F Grand Rapids
154 11 Sam Baker 00:29:37 6th M-1 to 14 10 M Grand Rapids
155 137 Jessica Nobert 00:29:39 8th F-30 to 39 32 F Walker
156 181 Caitlin Smith 00:29:39 25th F-15 to 19 19 F Allendale
157 210 Elizabeth Whaley 00:29:54 32nd F-20 to 29 21 F Allendale
158 72 Paula Gill 00:30:05 9th F-30 to 39 36 F Grand Rapids
159 165 Krystle Schmitt 00:30:14 33rd F-20 to 29 25 F Spring Lake
160 216 James Young 00:30:22 6th M-50 to 59 52 M Zeeland
161 27 Lori Carpenter 00:30:26 10th F-30 to 39 37 F Dorr
162 83 Amanda Haupt 00:30:26 34th F-20 to 29 20 F Grosse Ile
163 164 Christopher Scheiber 00:30:26 23rd M-20 to 29 20 M Grosse Ile
164 128 Lynnae Metzger 00:30:33 11th F-30 to 39 35 F Holland
165 56 Caleb Dullock 00:30:34 16th M-15 to 19 18 M Allendale
166 132 Dawn Nagelkirk 00:30:34 7th F-40 to 49 49 F Hudsonville
167 87 Kevin Hendges 00:30:35 17th M-15 to 19 19 M Allendale
168 44 Elizabeth Deimel 00:30:43 12th F-30 to 39 34 F Grand Rapids
169 215 Robin You 00:30:55 8th F-40 to 49 42 F Holland
170 118 Bridget Levander 00:31:10 11th F-1 to 14 12 F Allendale
171 54 M Ted Droski 00:31:12 13th M-30 to 39 35 M Allendale
172 154 Abigail Remington 00:31:12 35th F-20 to 29 20 F Allendale
173 280 Threse Smith 00:31:12 9th F-40 to 49 45 F Boyne City
174 22 Mike Brock 00:31:19 24th M-20 to 29 27 M Hudsonville
175 19 Johanna Bowen 00:31:48 12th F-1 to 14 12 F Holland
176 245 Sierra Hole 00:31:48 13th F-1 to 14 12 F Holland
177 134 Jake Nawrocki 00:31:53 7th M-1 to 14 13 M Rockford
178 193 Heather Thomas 00:32:23 13th F-30 to 39 37 F Holland
179 68 Kathryn Fordney 00:32:24 14th F-30 to 39 39 F Allendale
180 212 Natasha Will 00:32:26 36th F-20 to 29 21 F Allendale
181 106 Jan Kneibel 00:32:27 3rd F-50 to 59 51 F Jenison
182 261 Amy Clary 00:32:32 37th F-20 to 29 20 F Allendale
183 235 Carey Green 00:32:45 15th F-30 to 39 36 F Grand Haven
184 38 Edward Crum 00:32:56 7th M-50 to 59 50 M Holland
185 209 Erin West 00:33:03 26th F-15 to 19 19 F Allendale
186 120 Jason Los 00:33:08 25th M-20 to 29 27 M Holland
187 121 Mark Los 00:33:08 8th M-50 to 59 53 M Holland
188 42 Hannah Dausman 00:33:10 38th F-20 to 29 24 F North Muskegon
189 196 Katie Tolle 00:33:10 39th F-20 to 29 25 F N Mukegon
190 236 Julie Dumas 00:33:22 16th F-30 to 39 34 F Grand Rapids
191 244 Emilee Myers 00:33:23 17th F-30 to 39 34 F Grand Rapids
192 74 Harmony Gould 00:33:25 18th F-30 to 39 32 F Grand Rapids
193 32 Katie Cobb 00:33:26 19th F-30 to 39 30 F Kentwood
194 116 Susan Langeland 00:33:26 20th F-30 to 39 37 F Hudsonville
195 204 Andrew Walenga 00:33:28 14th M-30 to 39 34 M Grand Rapids
196 205 Krista Walenga 00:33:28 21st F-30 to 39 36 F Grand Rapids
197 277 Alissa Krumlauf 00:33:28 40th F-20 to 29 21 F Allendale
198 75 Katrice Graves 00:33:33 41st F-20 to 29 21 F Allendale
199 24 Heather Burse 00:33:37 22nd F-30 to 39 33 F Belmont
200 141 Melany Nyahoda 00:33:37 23rd F-30 to 39 30 F Wyoming
201 167 Melissa Schuyler 00:33:37 42nd F-20 to 29 29 F Henderson
202 283 Rick Wiesman 00:33:38 15th M-30 to 39 39 M Traverse City
203 254 Kayla Christopher 00:33:44 27th F-15 to 19 17 F Caledonia
204 105 Tarah Kline 00:33:53 43rd F-20 to 29 26 F Coopersville
205 110 Samantha Kraska 00:34:12 44th F-20 to 29 21 F Allendale
206 115 Phoebe Kulka 00:34:18 45th F-20 to 29 28 F Grand Rapids
207 100 Larry Kallio 00:34:28 16th M-30 to 39 39 M Grand Haven
208 101 Sarah Kallio 00:34:28 24th F-30 to 39 37 F Grand Haven
209 149 Kyle Pline 00:34:58 17th M-30 to 39 36 M Ravenna
210 8 Jennifer Arends 00:35:04 25th F-30 to 39 30 F Ravenna
211 148 Bonnie Pline 00:35:04 26th F-30 to 39 32 F Ravenna
212 178 Dawn Slattery 00:35:11 10th F-40 to 49 46 F Mundelein
213 202 Penny Vicini 00:35:44 27th F-30 to 39 39 F Berrien Springs
214 4 Mark Ambrose 00:36:06 11th M-40 to 49 40 M Byron Center
215 39 Abbey Dakin 00:36:09 14th F-1 to 14 13 F Muskegon
216 51 Lizzie Doriot 00:36:10 15th F-1 to 14 13 F Muskegon
217 264 Ken Seeley 00:36:22 18th M-30 to 39 35 M West Olive
218 5 Tona Ambrose 00:36:27 11th F-40 to 49 41 F Byron Center
219 131 Makenzie Morehouse 00:36:41 16th F-1 to 14 13 F Hastings
220 157 Amanda Richardson 00:36:41 46th F-20 to 29 23 F Richland
221 239 Lucy Lane Grooters 00:36:55 17th F-1 to 14 12 F Holland
222 267 Delaney Cavanagh 00:36:55 18th F-1 to 14 12 F Holland
223 124 Caitlin Mccaffrey 00:37:24 28th F-15 to 19 19 F Kalamazoo
224 78 Lauren Grieco 00:37:27 47th F-20 to 29 20 F Park Ridge
225 158 Kia Rivera-Evans 00:38:04 48th F-20 to 29 25 F Muskegon
226 15 Elizabeth Beau 00:38:17 4th F-50 to 59 56 F Grand Rapids
227 273 Holly Finco 00:38:18 5th F-50 to 59 50 F Jackson
228 276 Kellie Colliau 00:38:18 12th F-40 to 49 40 F Michigan Center
229 57 Abbey Dunlap 00:38:29 28th F-30 to 39 31 F Holland
230 195 Jennifer Timmer 00:38:29 29th F-30 to 39 33 F Holland
231 7 Callie Anderson 00:38:42 49th F-20 to 29 20 F Marne
232 29 Mackenzie Carter 00:38:42 29th F-15 to 19 18 F Grandville
233 12 Sophia Baker 00:38:44 19th F-1 to 14 9 F Grand Rapids
234 37 Donna Crum 00:39:00 13th F-40 to 49 47 F Holland
235 10 Margaret Baker 00:39:01 14th F-40 to 49 40 F Grand Rapids
236 95 Karen Hume 00:39:08 50th F-20 to 29 27 F Caledonia
237 103 Gwendolyn Kellogg 00:39:15 51st F-20 to 29 29 F Caledonia
238 170 Richard Sheehan 00:39:15 3rd M-60 to 99 62 M Grand Rapids
239 93 Emily Holtz 00:39:24 30th F-15 to 19 19 F Allendale
240 206 Rosemary Walker 00:39:36 52nd F-20 to 29 20 F Allendale
241 136 Ali Nelson 00:39:38 31st F-15 to 19 18 F Allendale
242 133 Donna Nawrocki 00:39:44 6th F-50 to 59 50 F Rockford
243 144 Martha Persak 00:40:00 15th F-40 to 49 44 F Jenison
244 163 Tina Sandoval 00:40:12 16th F-40 to 49 41 F Grand Rapids
245 152 Elizabeth Raap 00:40:44 17th F-40 to 49 43 F Jenison
246 219 Jennifer Zimelis 00:41:02 18th F-40 to 49 42 F Grand Rapids
247 34 Joshua Corey 00:41:04 8th M-1 to 14 9 M Grand Rapids
248 150 Angie Poe 00:41:12 53rd F-20 to 29 23 F Muskegon
249 33 Barb Corey 00:41:59 19th F-40 to 49 48 F Grand Rapids
250 180 Kady Slattery 00:42:01 54th F-20 to 29 23 F Mundelein
251 47 Andrea Devries 00:47:44 55th F-20 to 29 24 F Allendale
252 1 Amber Alday 00:53:16 56th F-20 to 29 28 F Fairborn



GVSU Running Club Turkey Trot - 2011
Presented by the Grand Valley State Running Club.
Charity beneficiary: Kids' Food Basket
Many thanks to the generous sponsors.
Age Group Race Results Report as of 11/20/2011 11:41:01 PM - Top Males Overall
Place Bib # Name Time Age Gender City
______________________________________________________________________________
1 45 Max Dekorne 00:16:22 21 M Jenison

Age Group Race Results Report as of 11/20/2011 11:41:01 PM - Top Females Overall
Place Bib # Name Time Age Gender City
______________________________________________________________________________
1 259 Samantha Draney 00:17:19 23 F Kalamazoo

Age Group Race Results Report as of 11/20/2011 11:41:01 PM - Top Male Masters
Place Bib # Name Time Age Gender City
______________________________________________________________________________
1 225 Robert Schlinz 00:17:30 51 M Allendale

Age Group Race Results Report as of 11/20/2011 11:41:01 PM - Top Female Masters
Place Bib # Name Time Age Gender City
______________________________________________________________________________
1 183 Julie Stempien 00:21:06 47 F Coldwater

Age Group Race Results Report as of 11/20/2011 11:41:01 PM - 14 and Under
Place Bib # Name Time Age Gender City
______________________________________________________________________________
1 41 Rohan Dandavati 00:21:25 13 M Holland
2 278 Oliver 00:21:26 12 M Zeeland
3 117 Ben Levander 00:22:11 13 M Allendale
4 266 Colt Seeley 00:23:38 14 M West Olive
5 67 Joseph Fordney 00:26:03 9 M Allendale
6 11 Sam Baker 00:29:37 10 M Grand Rapids
7 134 Jake Nawrocki 00:31:53 13 M Rockford
8 34 Joshua Corey 00:41:04 9 M Grand Rapids


Age Group Race Results Report as of 11/20/2011 11:41:02 PM - 15 to 19
Place Bib # Name Time Age Gender City
______________________________________________________________________________
1 112 Andrew Kuck 00:16:51 19 M Allendale
2 249 Kyle Schippa 00:17:15 19 M Allendale
3 233 Sam Freestone 00:17:52 16 M Fennville
4 126 Nick Mcintosh 00:18:28 18 M Allendale
5 104 Jonathan Kelly 00:18:29 19 M Charlevoix
6 79 Matthew Hager 00:18:36 17 M Grand Rapids
7 270 Joseph Britt 00:18:54 15 M Holland
8 242 Connor Bolthouse 00:19:23 15 M Spring Lake
9 272 AJ Garcia 00:19:25 15 M Holland
10 172 Daniel Shomsky 00:20:19 18 M Grand Rapids
11 143 Alex Overbeek 00:22:17 17 M Wyoming
12 85 Ian Heinicke 00:24:14 18 M Kalamazoo
13 113 Jason Kuck 00:24:14 18 M Allendale
14 188 Joseph Strauel 00:25:09 19 M Marlette
15 274 Blake Gaver 00:28:58 18 M Jackson
16 56 Caleb Dullock 00:30:34 18 M Allendale
17 87 Kevin Hendges 00:30:35 19 M Allendale


Age Group Race Results Report as of 11/20/2011 11:41:02 PM - 20 to 29
Place Bib # Name Time Age Gender City
______________________________________________________________________________
1 130 Evan Moreau 00:17:13 20 M Onaway
2 190 Gavin Stuart 00:17:14 21 M Hudsonville
3 194 Keith Thomas 00:17:24 27 M Big Rapids
4 247 Jess Paauwl 00:19:24 22 M Allendale
5 65 Daniel Evans 00:20:10 24 M Muskegon
6 77 Richard Grenn 00:20:12 20 M Birmingham
7 168 Scott Sedgley 00:20:35 25 M Muskegon
8 173 Joshua Shomsky 00:21:24 21 M Grand Rapids
9 13 Jason Bates 00:22:56 23 M Muskegon
10 248 Michael Rajmcek 00:23:05 21 M Allendale
11 146 Matthew Picardat 00:23:22 20 M Wyoming
12 265 Aaron Hoxworth 00:23:57 22 M Hastings
13 109 Brett Kosmicki 00:24:00 24 M Grand Rapids
14 257 Heath Hofstra 00:24:18 27 M Hudsonville
15 92 Taylor Hoganson 00:25:25 20 M Walker
16 135 Tim Nellis 00:25:25 20 M Wyoming
17 97 Frank Hvizdos 00:25:32 27 M Jenison
18 184 Sean Sterling 00:25:43 24 M Walker
19 240 Steven Lee Abramson 00:26:04 29 M Grand Rapids
20 43 Terry Davis 00:27:02 22 M Allendale
21 46 Brandon Deroo 00:27:08 20 M Zeeland
22 90 Dustin Hernke 00:28:09 24 M Grand Rapids
23 164 Christopher Scheiber 00:30:26 20 M Grosse Ile
24 22 Mike Brock 00:31:19 27 M Hudsonville
25 120 Jason Los 00:33:08 27 M Holland


Age Group Race Results Report as of 11/20/2011 11:41:02 PM - 30 to 39
Place Bib # Name Time Age Gender City
______________________________________________________________________________
1 231 Scott Freese 00:18:36 35 M Allendale
2 139 Erik Nordman 00:19:52 38 M Spring Lake
3 89 Tim Henne 00:19:59 39 M Walker
4 284 Tom Kasper 00:21:20 36 M Traverse City
5 171 Pete Shepherd 00:21:41 34 M Midland
6 269 James Butt 00:23:15 39 M Zeeland
7 40 Scott Dakin 00:23:18 37 M Muskegon
8 192 Matt Tanis 00:23:34 30 M Holland
9 3 Peter Alfano 00:24:41 35 M Saginaw
10 159 Daniel Robison 00:25:09 35 M Allendale
11 268 Dean Bettendorf 00:25:36 37 M Muskegon
12 138 Jim Nobert 00:26:16 30 M Grand Rapids
13 54 M Ted Droski 00:31:12 35 M Allendale
14 204 Andrew Walenga 00:33:28 34 M Grand Rapids
15 283 Rick Wiesman 00:33:38 39 M Traverse City
16 100 Larry Kallio 00:34:28 39 M Grand Haven
17 149 Kyle Pline 00:34:58 36 M Ravenna
18 264 Ken Seeley 00:36:22 35 M West Olive


Age Group Race Results Report as of 11/20/2011 11:41:02 PM - 40 to 49
Place Bib # Name Time Age Gender City
______________________________________________________________________________
1 222 Paul Soper 00:19:37 48 M Grand Rapids
2 271 Jerry L. Schipper 00:19:45 47 M Lake City
3 199 Mark Van Duinen 00:21:19 43 M Zeeland
4 61 Patrick English 00:21:32 40 M Big Rapids
5 198 David Van Duinen 00:24:36 41 M Spring Lake
6 6 Brad Anderson 00:25:11 40 M Jenison
7 25 Ken Campbell 00:25:12 42 M Grand Rapids
8 62 Greg Erny 00:25:28 42 M Holland
9 191 Robert Talbert 00:27:42 41 M Hudsonville
10 230 John Fordney 00:28:40 42 M Allendale
11 4 Mark Ambrose 00:36:06 40 M Byron Center


Age Group Race Results Report as of 11/20/2011 11:41:02 PM - 50 to 59
Place Bib # Name Time Age Gender City
______________________________________________________________________________
1 31 Gary Chapman 00:22:48 59 M Jenison
2 76 Jim Green 00:24:39 58 M Hudsonville
3 20 Calvin Brinks 00:25:56 52 M Jenison
4 179 John Slattery 00:27:41 51 M Mundelein
5 216 James Young 00:30:22 52 M Zeeland
6 38 Edward Crum 00:32:56 50 M Holland
7 121 Mark Los 00:33:08 53 M Holland


Age Group Race Results Report as of 11/20/2011 11:41:02 PM - 60 and over
Place Bib # Name Time Age Gender City
______________________________________________________________________________
1 153 Loren Redder 00:21:50 65 M Zeeland
2 227 Bob Gudas 00:24:51 63 M Spring Lake
3 170 Richard Sheehan 00:39:15 62 M Grand Rapids


Age Group Race Results Report as of 11/20/2011 11:41:03 PM - 14 and Under
Place Bib # Name Time Age Gender City
______________________________________________________________________________
1 98 Bailey Johnson 00:20:19 14 F Grandville
2 175 Martha Shomsky 00:21:04 8 F Grand Rapids
3 246 Hannah Millard 00:23:32 14 F Allendale
4 256 Olivia Hobbins 00:23:37 14 F Allendale
5 14 Avri Beach 00:24:41 13 F Rockford
6 176 Rebekah Shomsky 00:24:51 12 F Grand Rapids
7 71 Avery Gill 00:26:35 10 F Grand Rapids
8 28 Kierstin Carpenter 00:26:38 14 F Dorr
9 185 Elly Stjohn 00:26:42 14 F Marne
10 52 Aislinn Droski 00:28:15 13 F Allendale
11 118 Bridget Levander 00:31:10 12 F Allendale
12 19 Johanna Bowen 00:31:48 12 F Holland
13 245 Sierra Hole 00:31:48 12 F Holland
14 39 Abbey Dakin 00:36:09 13 F Muskegon
15 51 Lizzie Doriot 00:36:10 13 F Muskegon
16 131 Makenzie Morehouse 00:36:41 13 F Hastings
17 239 Lucy Lane Grooters 00:36:55 12 F Holland
18 267 Delaney Cavanagh 00:36:55 12 F Holland
19 12 Sophia Baker 00:38:44 9 F Grand Rapids


Age Group Race Results Report as of 11/20/2011 11:41:03 PM - 15 to 19
Place Bib # Name Time Age Gender City
______________________________________________________________________________
1 177 Maylani Siemasz 00:20:49 19 F Waterford
2 18 Tarah Bourke 00:22:28 18 F Newaygo
3 49 Liza Diantonio 00:22:47 19 F Clarkston
4 99 Hannah Johnson 00:22:58 17 F Holland
5 250 Sara Helder 00:23:00 16 F Holland
6 114 Lindsey Kulie 00:23:07 17 F Novi
7 35 Madeline Coyle 00:23:08 18 F Allendale
8 145 Staci Peterson 00:23:24 18 F Bloomingdale
9 36 Michelle Croad 00:24:33 18 F Novi
10 26 Ashley Caniff 00:26:28 19 F Allendale
11 201 Emily Vanderwagen 00:26:42 15 F Coopersville
12 169 Grace Seymore 00:27:35 18 F Big Rapids
13 16 Melissa Beemer 00:27:55 19 F Allendale
14 232 Leah Sajdak 00:28:00 18 F Allendale
15 252 Kelsey Friberg 00:28:05 17 F Caledonia
16 70 Shawna Galehouse 00:28:22 16 F Grand Rapids
17 255 Mariah Janho 00:28:27 17 F Kentwood
18 63 Angelika Espinosa 00:28:53 18 F Holland
19 275 Danielle Colliau 00:28:58 18 F Allendale
20 241 Megan Brocklehurst 00:29:02 19 F Allendale
21 123 Sarah Manis 00:29:10 18 F Scotts
22 127 Michelle Medved 00:29:11 18 F Novi
23 9 Chelsea Baker 00:29:19 19 F Allendale
24 281 Morgan Harding 00:29:27 19 F Boyne City
25 181 Caitlin Smith 00:29:39 19 F Allendale
26 209 Erin West 00:33:03 19 F Allendale
27 254 Kayla Christopher 00:33:44 17 F Caledonia
28 124 Caitlin Mccaffrey 00:37:24 19 F Kalamazoo
29 29 Mackenzie Carter 00:38:42 18 F Grandville
30 93 Emily Holtz 00:39:24 19 F Allendale
31 136 Ali Nelson 00:39:38 18 F Allendale


Age Group Race Results Report as of 11/20/2011 11:41:03 PM - 20 to 29
Place Bib # Name Time Age Gender City
______________________________________________________________________________
1 226 Alicia Sherwood 00:18:30 24 F Holland
2 73 Alison Goss 00:19:36 24 F Traverse City
3 84 Gretchen Hein 00:20:42 22 F Allendale
4 94 Christine Horn 00:20:46 26 F Montague
5 55 Chelsea Dukes 00:21:35 20 F Stanwood
6 174 Katherine Shomsky 00:21:43 24 F Grand Rapids
7 161 Carlee Roeber 00:21:45 20 F Shelby Twp.
8 2 Amy Alfano 00:21:47 29 F Saginaw
9 108 Elizabeth Koltonow 00:22:01 21 F Beverly Hills
10 279 Petra Coranedo 00:22:06 20 F Big Rapids
11 234 Anna Stegink 00:22:48 20 F Kalamazoo
12 251 Melissa Schrutenboen 00:22:50 25 F Holland
13 119 Liz Lipkovitz 00:22:57 20 F Lansing
14 243 Katherine Andert 00:23:16 20 F Allendale
15 80 Nicole Hammer 00:23:36 21 F Troy
16 187 Hannah Strauel 00:24:38 22 F Kent City
17 258 Edna Stutzman 00:25:29 23 F Bronson
18 59 Danielle Durnwald 00:25:34 24 F Holland
19 203 Kelsey Waldecker 00:25:35 20 F Marne
20 69 Stephanie Foreman 00:26:19 27 F Holland
21 189 Bethany Stripp 00:26:27 21 F Holland
22 30 Katrina Caruso 00:26:34 21 F Grand Rapids
23 162 Aubrey Rogers 00:26:43 20 F Zeeland
24 260 Beth Kruithoff 00:27:09 23 F Zeeland
25 122 Leah Macfadden 00:27:16 26 F Grand Haven
26 197 Jenn Treat 00:27:16 29 F Muskegon
27 217 Kellie Zachman 00:27:39 20 F Allendale
28 262 Amy Carrabine 00:28:11 20 F Allendale
29 282 Stephanie Hagger 00:28:38 20 F South Haven
30 186 Jennifer Stoll 00:29:18 27 F Grand Rapids
31 208 Emily West 00:29:30 24 F Grand Rapids
32 210 Elizabeth Whaley 00:29:54 21 F Allendale
33 165 Krystle Schmitt 00:30:14 25 F Spring Lake
34 83 Amanda Haupt 00:30:26 20 F Grosse Ile
35 154 Abigail Remington 00:31:12 20 F Allendale
36 212 Natasha Will 00:32:26 21 F Allendale
37 261 Amy Clary 00:32:32 20 F Allendale
38 42 Hannah Dausman 00:33:10 24 F North Muskegon
39 196 Katie Tolle 00:33:10 25 F N Mukegon
40 277 Alissa Krumlauf 00:33:28 21 F Allendale
41 75 Katrice Graves 00:33:33 21 F Allendale
42 167 Melissa Schuyler 00:33:37 29 F Henderson
43 105 Tarah Kline 00:33:53 26 F Coopersville
44 110 Samantha Kraska 00:34:12 21 F Allendale
45 115 Phoebe Kulka 00:34:18 28 F Grand Rapids
46 157 Amanda Richardson 00:36:41 23 F Richland
47 78 Lauren Grieco 00:37:27 20 F Park Ridge
48 158 Kia Rivera-Evans 00:38:04 25 F Muskegon
49 7 Callie Anderson 00:38:42 20 F Marne
50 95 Karen Hume 00:39:08 27 F Caledonia
51 103 Gwendolyn Kellogg 00:39:15 29 F Caledonia
52 206 Rosemary Walker 00:39:36 20 F Allendale
53 150 Angie Poe 00:41:12 23 F Muskegon
54 180 Kady Slattery 00:42:01 23 F Mundelein
55 47 Andrea Devries 00:47:44 24 F Allendale
56 1 Amber Alday 00:53:16 28 F Fairborn


Age Group Race Results Report as of 11/20/2011 11:41:03 PM - 30 to 39
Place Bib # Name Time Age Gender City
______________________________________________________________________________
1 82 Joanna Hathaway 00:20:48 39 F Coldwater
2 156 Erin Ricco 00:22:22 32 F Nunica
3 220 Elise Zuber 00:25:43 37 F Zeeland
4 263 Dawn Bredeweg 00:26:17 38 F Zeeland
5 129 Sarah Minnick 00:28:44 37 F Grand Rapids
6 160 Melinda Robison 00:29:03 35 F Allendale
7 64 April Espinosa 00:29:21 37 F Holland
8 137 Jessica Nobert 00:29:39 32 F Walker
9 72 Paula Gill 00:30:05 36 F Grand Rapids
10 27 Lori Carpenter 00:30:26 37 F Dorr
11 128 Lynnae Metzger 00:30:33 35 F Holland
12 44 Elizabeth Deimel 00:30:43 34 F Grand Rapids
13 193 Heather Thomas 00:32:23 37 F Holland
14 68 Kathryn Fordney 00:32:24 39 F Allendale
15 235 Carey Green 00:32:45 36 F Grand Haven
16 236 Julie Dumas 00:33:22 34 F Grand Rapids
17 244 Emilee Myers 00:33:23 34 F Grand Rapids
18 74 Harmony Gould 00:33:25 32 F Grand Rapids
19 32 Katie Cobb 00:33:26 30 F Kentwood
20 116 Susan Langeland 00:33:26 37 F Hudsonville
21 205 Krista Walenga 00:33:28 36 F Grand Rapids
22 24 Heather Burse 00:33:37 33 F Belmont
23 141 Melany Nyahoda 00:33:37 30 F Wyoming
24 101 Sarah Kallio 00:34:28 37 F Grand Haven
25 8 Jennifer Arends 00:35:04 30 F Ravenna
26 148 Bonnie Pline 00:35:04 32 F Ravenna
27 202 Penny Vicini 00:35:44 39 F Berrien Springs
28 57 Abbey Dunlap 00:38:29 31 F Holland
29 195 Jennifer Timmer 00:38:29 33 F Holland


Age Group Race Results Report as of 11/20/2011 11:41:03 PM - 40 to 49
Place Bib # Name Time Age Gender City
______________________________________________________________________________
1 237 Gail Riddering 00:26:26 43 F Grandville
2 253 Karen Friberg 00:28:03 47 F Caledonia
3 125 Leanne Mcfall 00:28:08 40 F Zeeland
4 23 Elizabeth Burnis 00:28:17 41 F Holland
5 50 Renee Dix 00:28:42 40 F Jenison
6 132 Dawn Nagelkirk 00:30:34 49 F Hudsonville
7 215 Robin You 00:30:55 42 F Holland
8 280 Threse Smith 00:31:12 45 F Boyne City
9 178 Dawn Slattery 00:35:11 46 F Mundelein
10 5 Tona Ambrose 00:36:27 41 F Byron Center
11 276 Kellie Colliau 00:38:18 40 F Michigan Center
12 37 Donna Crum 00:39:00 47 F Holland
13 10 Margaret Baker 00:39:01 40 F Grand Rapids
14 144 Martha Persak 00:40:00 44 F Jenison
15 163 Tina Sandoval 00:40:12 41 F Grand Rapids
16 152 Elizabeth Raap 00:40:44 43 F Jenison
17 219 Jennifer Zimelis 00:41:02 42 F Grand Rapids
18 33 Barb Corey 00:41:59 48 F Grand Rapids


Age Group Race Results Report as of 11/20/2011 11:41:03 PM - 50 to 59
Place Bib # Name Time Age Gender City
______________________________________________________________________________
1 229 Jan TenKate 00:26:26 50 F Wyoming
2 151 Mary Pope 00:26:29 53 F Pinckney
3 106 Jan Kneibel 00:32:27 51 F Jenison
4 15 Elizabeth Beau 00:38:17 56 F Grand Rapids
5 273 Holly Finco 00:38:18 50 F Jackson
6 133 Donna Nawrocki 00:39:44 50 F Rockford


Age Group Race Results Report as of 11/20/2011 11:41:03 PM - 60 and over
Place Bib # Name Time Age Gender City
______________________________________________________________________________
No results yet for this age group.